Terminal Aerodrome Forecast
Issued by NWS Topeka, KS

Home | Current Version | Previous Version | Graphics & Text | Print | Product List | Glossary On
Versions: 1 2 3 4 5 6 7 8 9 10 11 12 13 14 15 16 17
000
FTUS43 KTOP 231900 AAA
TAFTOP
TAF AMD
KTOP 231910Z 2319/2418 28010KT 3SM -SHRA BR BKN007 OVC015
     FM232000 32019G27KT 3SM -RA BR OVC020
     FM240400 31016G23KT P6SM BKN035=

USA.gov is the U.S. government's official web portal to all federal, state and local government web resources and services.